createdAt,value
2017-09-25T00:11:46.530Z,27.30
2017-09-25T00:14:12.952Z,32.53
2017-09-25T00:16:39.510Z,28.47
2017-09-25T00:19:06.967Z,28.77
2017-09-25T00:21:33.513Z,30.70
2017-09-25T00:24:00.169Z,24.53
2017-09-25T00:26:28.312Z,25.50
2017-09-25T00:28:55.024Z,24.40
2017-09-25T00:31:21.615Z,27.47
2017-09-25T00:33:48.420Z,25.83
2017-09-25T00:36:15.044Z,26.73
2017-09-25T00:38:42.714Z,25.60
2017-09-25T00:41:09.193Z,24.10
2017-09-25T00:43:36.656Z,25.67
2017-09-25T00:46:04.196Z,27.83
2017-09-25T00:48:31.648Z,23.23
2017-09-25T00:50:58.080Z,25.00
2017-09-25T00:53:43.313Z,27.37
2017-09-25T00:56:09.956Z,23.60
2017-09-25T01:01:50.223Z,24.17
2017-09-25T01:07:30.379Z,23.47
2017-09-25T01:12:52.300Z,26.50
2017-09-25T01:15:27.951Z,24.47
2017-09-25T01:17:55.874Z,26.93
2017-09-25T01:20:22.519Z,28.00
2017-09-25T01:22:49.275Z,26.47
2017-09-25T01:25:15.880Z,28.70
2017-09-25T01:27:43.368Z,24.37
2017-09-25T01:30:11.041Z,29.40
2017-09-25T01:32:37.616Z,28.37
2017-09-25T01:35:05.640Z,28.87
2017-09-25T01:37:32.168Z,25.10
2017-09-25T01:39:58.888Z,25.17
2017-09-25T01:42:27.478Z,24.77
2017-09-25T01:47:52.510Z,21.90
2017-09-25T01:53:14.064Z,24.53
2017-09-25T01:55:40.664Z,28.10
2017-09-25T01:58:07.425Z,26.93
2017-09-25T02:00:34.032Z,24.17
2017-09-25T02:03:00.806Z,22.43
2017-09-25T02:05:42.956Z,22.67
2017-09-25T02:08:09.566Z,18.63
2017-09-25T02:10:36.056Z,21.87
2017-09-25T02:13:02.676Z,23.17
2017-09-25T02:15:29.266Z,26.50
2017-09-25T02:17:59.632Z,27.93
2017-09-25T02:20:26.686Z,26.80
2017-09-25T02:22:56.207Z,25.23
2017-09-25T02:25:23.107Z,25.57
2017-09-25T02:27:49.793Z,23.63
2017-09-25T02:30:16.373Z,33.40
2017-09-25T02:32:43.926Z,25.30
2017-09-25T02:35:10.662Z,28.23
2017-09-25T02:37:39.317Z,26.27
2017-09-25T02:40:05.913Z,28.50
2017-09-25T02:42:32.511Z,30.90
2017-09-25T02:45:02.839Z,30.53
2017-09-25T03:01:53.072Z,35.50
2017-09-25T03:04:19.544Z,33.77
2017-09-25T03:06:46.282Z,30.97
2017-09-25T03:09:12.988Z,26.17
2017-09-25T03:11:40.851Z,27.80
2017-09-25T03:14:07.465Z,26.50
2017-09-25T03:19:25.586Z,29.50
2017-09-25T03:21:56.144Z,36.90
2017-09-25T03:24:22.885Z,39.57
2017-09-25T03:26:50.297Z,32.03
2017-09-25T03:29:19.479Z,34.03
2017-09-25T03:31:46.120Z,29.33
2017-09-25T03:34:12.744Z,31.70
2017-09-25T03:36:41.481Z,31.87
2017-09-25T03:39:08.224Z,32.57
2017-09-25T03:41:35.816Z,28.20
2017-09-25T03:44:03.465Z,24.90
2017-09-25T03:46:31.091Z,28.70
2017-09-25T03:48:57.735Z,31.80
2017-09-25T03:51:25.419Z,31.00
2017-09-25T03:53:52.116Z,29.90
2017-09-25T03:56:18.604Z,33.40
2017-09-25T03:58:46.082Z,32.97
2017-09-25T04:04:06.223Z,33.63
2017-09-25T04:06:32.736Z,39.63
2017-09-25T04:09:01.340Z,35.70
2017-09-25T04:11:30.941Z,31.07
2017-09-25T04:14:00.424Z,35.30
2017-09-25T04:27:59.664Z,34.13
2017-09-25T04:30:26.108Z,36.10
2017-09-25T04:35:51.024Z,30.10
2017-09-25T04:53:58.544Z,20.57
2017-09-25T04:56:26.772Z,22.20
2017-09-25T04:58:53.138Z,21.80
2017-09-25T05:01:20.337Z,23.87
2017-09-25T05:03:46.985Z,25.00
2017-09-25T05:06:14.312Z,22.37
2017-09-25T05:08:41.032Z,23.80
2017-09-25T05:11:07.716Z,23.83
2017-09-25T05:13:34.330Z,21.00
2017-09-25T05:18:56.653Z,23.83
2017-09-25T05:21:24.190Z,20.93
2017-09-25T05:36:23.297Z,23.43
2017-09-25T05:46:35.229Z,23.87
2017-09-25T05:51:56.571Z,29.13
2017-09-25T05:54:26.212Z,29.50
2017-09-25T05:56:53.067Z,27.10
2017-09-25T05:59:19.913Z,28.33
2017-09-25T06:01:46.702Z,26.00
2017-09-25T06:04:14.153Z,29.70
2017-09-25T06:06:43.692Z,23.37
2017-09-25T06:09:10.562Z,26.63
2017-09-25T06:11:39.292Z,29.33
2017-09-25T06:14:05.874Z,24.27
2017-09-25T06:16:32.720Z,25.47
2017-09-25T06:18:59.580Z,28.90
2017-09-25T06:21:26.276Z,25.73
2017-09-25T06:23:52.879Z,20.40
2017-09-25T06:26:20.752Z,30.10
2017-09-25T06:28:47.448Z,29.57
2017-09-25T06:31:14.020Z,31.53
2017-09-25T06:33:41.664Z,33.10
2017-09-25T06:36:09.149Z,36.97
2017-09-25T06:38:36.851Z,39.23
2017-09-25T06:41:03.488Z,33.93
2017-09-25T06:43:30.987Z,39.70
2017-09-25T06:45:58.761Z,35.70
2017-09-25T07:01:48.243Z,31.30
2017-09-25T07:04:14.924Z,34.20
2017-09-25T07:06:42.949Z,35.70
2017-09-25T07:09:09.486Z,40.90
2017-09-25T07:11:38.083Z,37.30
2017-09-25T07:14:04.696Z,37.93
2017-09-25T07:55:33.030Z,46.53
2017-09-25T07:57:59.499Z,45.30
2017-09-25T08:00:27.080Z,46.63
2017-09-25T08:02:53.505Z,48.00
2017-09-25T08:05:20.658Z,42.40
2017-09-25T08:07:47.260Z,39.93
2017-09-25T08:10:13.800Z,36.50
2017-09-25T08:12:40.254Z,35.30
2017-09-25T08:18:16.853Z,40.53
2017-09-25T08:20:43.471Z,41.10
2017-09-25T08:23:10.153Z,40.60
2017-09-25T08:25:37.487Z,37.33
2017-09-25T08:28:04.051Z,40.43
2017-09-25T08:43:53.000Z,41.73
2017-09-25T08:46:20.647Z,41.70
2017-09-25T08:48:47.408Z,43.80
2017-09-25T08:51:14.640Z,42.73
2017-09-25T08:53:41.990Z,43.17
2017-09-25T08:56:08.396Z,39.83
2017-09-25T08:58:34.948Z,47.03
2017-09-25T09:01:01.526Z,46.27
2017-09-25T09:03:29.912Z,41.83
2017-09-25T09:05:57.446Z,40.00
2017-09-25T09:08:43.524Z,41.73
2017-09-25T09:11:10.053Z,31.83
2017-09-25T09:13:36.579Z,39.53
2017-09-25T09:29:24.994Z,33.70
2017-09-25T09:31:51.543Z,41.50
2017-09-25T09:34:18.081Z,36.00
2017-09-25T09:36:56.336Z,35.03
2017-09-25T09:39:22.800Z,35.37
2017-09-25T09:41:52.383Z,33.87
2017-09-25T09:44:18.991Z,34.23
2017-09-25T09:46:46.499Z,35.30
2017-09-25T09:49:13.512Z,34.40
2017-09-25T09:51:41.041Z,33.50
2017-09-25T09:54:07.619Z,32.87
2017-09-25T09:56:34.044Z,33.20
2017-09-25T09:59:01.670Z,32.00
2017-09-25T10:01:34.168Z,37.90
2017-09-25T10:44:13.276Z,27.97
2017-09-25T10:46:40.125Z,25.83
2017-09-25T10:49:06.696Z,28.27
2017-09-25T10:54:43.413Z,25.10
2017-09-25T10:59:50.014Z,25.67
2017-09-25T11:02:16.812Z,24.37
2017-09-25T11:04:43.613Z,31.53
2017-09-25T11:07:11.096Z,29.00
2017-09-25T11:09:37.559Z,26.83
2017-09-25T11:15:00.291Z,25.77
2017-09-25T11:17:58.779Z,27.20
2017-09-25T11:56:46.900Z,23.13
2017-09-25T11:59:13.407Z,21.77
2017-09-25T12:01:39.981Z,21.03
2017-09-25T12:04:06.492Z,21.10
2017-09-25T12:06:33.068Z,22.83
2017-09-25T12:08:59.597Z,24.20
2017-09-25T12:11:27.949Z,25.53
2017-09-25T12:13:54.559Z,18.67
2017-09-25T12:16:21.015Z,19.83
2017-09-25T12:18:47.576Z,19.17
2017-09-25T12:21:30.340Z,19.43
2017-09-25T12:23:57.033Z,21.20
2017-09-25T12:26:25.369Z,19.50
2017-09-25T12:28:52.389Z,18.77
2017-09-25T12:31:21.815Z,22.53
2017-09-25T12:33:58.329Z,21.00
2017-09-25T12:36:25.584Z,21.27
2017-09-25T12:38:53.100Z,18.70
2017-09-25T12:41:22.439Z,25.20
2017-09-25T12:43:49.132Z,20.07
2017-09-25T12:46:16.760Z,19.43
2017-09-25T12:48:44.413Z,20.57
2017-09-25T13:30:13.440Z,19.20
2017-09-25T13:32:39.975Z,18.80
2017-09-25T13:35:06.397Z,17.57
2017-09-25T13:40:34.177Z,18.53
2017-09-25T13:43:02.388Z,16.80
2017-09-25T13:45:30.611Z,19.17
2017-09-25T13:48:00.427Z,16.57
2017-09-25T13:50:27.023Z,16.23
2017-09-25T13:52:53.685Z,17.70
2017-09-25T13:55:20.300Z,15.63
2017-09-25T13:57:47.104Z,15.40
2017-09-25T14:02:46.459Z,13.37
2017-09-25T14:05:24.392Z,11.77
2017-09-25T14:07:51.854Z,11.20
2017-09-25T14:10:18.561Z,11.07
2017-09-25T14:12:45.644Z,11.40
2017-09-25T14:15:12.240Z,11.03
2017-09-25T14:17:42.222Z,11.70
2017-09-25T14:20:09.624Z,11.43
2017-09-25T14:22:36.100Z,10.87
2017-09-25T14:25:03.572Z,8.10
2017-09-25T14:27:30.093Z,9.17
2017-09-25T14:29:58.500Z,10.93
2017-09-25T14:32:31.571Z,9.70
2017-09-25T14:34:59.709Z,7.97
2017-09-25T14:37:29.485Z,8.00
2017-09-25T14:39:56.684Z,8.17
2017-09-25T14:42:24.092Z,8.33
2017-09-25T14:44:50.639Z,9.50
2017-09-25T14:47:18.396Z,9.37
2017-09-25T14:49:44.876Z,9.50
2017-09-25T14:52:13.038Z,9.33
2017-09-25T14:57:50.495Z,8.10
2017-09-25T15:06:05.780Z,7.40
2017-09-25T15:11:06.614Z,7.70
2017-09-25T15:13:33.411Z,7.30
2017-09-25T15:16:00.558Z,7.20
2017-09-25T15:21:21.079Z,6.90
2017-09-25T15:23:47.852Z,8.40
2017-09-25T15:29:08.239Z,7.83
2017-09-25T15:31:37.799Z,8.37
2017-09-25T15:34:05.320Z,7.37
2017-09-25T15:36:31.843Z,7.17
2017-09-25T15:38:58.969Z,7.77
2017-09-25T15:41:25.565Z,10.20
2017-09-25T15:43:54.911Z,8.00
2017-09-25T16:11:03.309Z,6.90
2017-09-25T16:13:40.235Z,6.77
2017-09-25T16:16:06.808Z,5.70
2017-09-25T16:18:33.443Z,6.37
2017-09-25T16:21:00.187Z,5.20
2017-09-25T16:23:26.743Z,5.97
2017-09-25T16:25:53.259Z,6.10
2017-09-25T16:28:19.835Z,6.53
2017-09-25T16:30:46.323Z,6.43
2017-09-25T16:44:40.704Z,7.00
2017-09-25T16:47:11.092Z,6.00
2017-09-25T16:49:38.249Z,6.03
2017-09-25T16:52:05.016Z,7.63
2017-09-25T16:54:34.972Z,9.00
2017-09-25T16:57:02.545Z,7.60
2017-09-25T16:59:30.232Z,7.70
2017-09-25T17:01:57.141Z,8.10
2017-09-25T17:04:24.720Z,10.73
2017-09-25T17:06:53.455Z,10.00
2017-09-25T17:12:15.240Z,8.10
2017-09-25T17:14:41.891Z,9.33
2017-09-25T17:17:11.692Z,9.40
2017-09-25T17:55:26.953Z,10.77
2017-09-25T17:57:53.815Z,9.87
2017-09-25T18:00:20.663Z,10.27
2017-09-25T18:02:49.229Z,9.17
2017-09-25T18:05:27.048Z,8.87
2017-09-25T18:07:53.935Z,9.43
2017-09-25T18:10:22.675Z,9.73
2017-09-25T18:12:51.612Z,7.87
2017-09-25T18:15:19.131Z,8.57
2017-09-25T18:17:45.719Z,8.50
2017-09-25T18:20:12.200Z,8.20
2017-09-25T18:22:39.487Z,8.97
2017-09-25T18:25:07.599Z,9.30
2017-09-25T18:27:44.367Z,14.67
2017-09-25T18:30:11.240Z,12.67
2017-09-25T18:32:37.727Z,15.63
2017-09-25T18:35:06.516Z,13.10
2017-09-25T18:37:33.799Z,11.50
2017-09-25T18:40:01.277Z,14.60
2017-09-25T18:42:27.971Z,11.77
2017-09-25T18:44:54.513Z,12.47
2017-09-25T18:47:21.015Z,13.40
2017-09-25T18:49:47.638Z,12.77
2017-09-25T18:55:10.492Z,14.90
2017-09-25T18:57:37.285Z,13.87
2017-09-25T19:00:03.852Z,13.77
2017-09-25T19:02:32.465Z,17.47
2017-09-25T19:05:00.026Z,14.07
2017-09-25T19:07:26.903Z,11.90
2017-09-25T19:09:54.540Z,12.90
2017-09-25T19:12:22.075Z,9.77
2017-09-25T19:26:21.149Z,11.03
2017-09-25T19:28:47.905Z,10.10
2017-09-25T19:31:15.548Z,10.83
2017-09-25T19:33:42.147Z,9.53
2017-09-25T19:36:08.646Z,11.17
2017-09-25T20:16:02.984Z,13.90
2017-09-25T20:18:30.720Z,13.80
2017-09-25T20:20:58.391Z,16.57
2017-09-25T20:23:25.671Z,14.83
2017-09-25T20:25:52.215Z,15.80
2017-09-25T20:28:18.781Z,14.70
2017-09-25T20:30:45.434Z,13.73
2017-09-25T20:33:13.132Z,12.70
2017-09-25T20:35:40.967Z,12.70
2017-09-25T20:38:17.807Z,19.57
2017-09-25T20:40:45.424Z,15.90
2017-09-25T20:43:14.101Z,16.00
2017-09-25T20:45:41.388Z,15.20
2017-09-25T20:48:08.280Z,13.33
2017-09-25T20:50:37.964Z,18.80
2017-09-25T20:53:07.804Z,15.20
2017-09-25T20:55:34.356Z,15.33
2017-09-25T20:58:01.823Z,12.90
2017-09-25T21:00:29.403Z,11.73
2017-09-25T21:46:23.063Z,13.13
2017-09-25T21:48:50.000Z,11.77
2017-09-25T21:51:16.812Z,14.50
2017-09-25T21:53:44.203Z,15.43
2017-09-25T21:56:10.688Z,15.63
2017-09-25T21:58:37.250Z,15.77
2017-09-25T22:01:03.731Z,19.13
2017-09-25T22:03:32.364Z,20.53
2017-09-25T22:05:59.102Z,14.13
2017-09-25T22:08:26.492Z,16.77
2017-09-25T22:10:52.994Z,13.83
2017-09-25T22:13:21.548Z,14.60
2017-09-25T22:18:43.508Z,15.10
2017-09-25T22:21:10.240Z,14.97
2017-09-25T22:23:37.023Z,15.43
2017-09-25T22:26:03.595Z,15.07
2017-09-25T22:28:30.035Z,14.30
2017-09-25T22:30:57.599Z,13.90
2017-09-25T22:33:24.432Z,13.60
2017-09-25T22:35:50.895Z,15.20
2017-09-25T22:38:17.512Z,15.80
2017-09-25T22:40:44.958Z,13.87
2017-09-25T22:46:23.562Z,20.00
2017-09-25T22:48:50.315Z,16.80
2017-09-25T22:51:16.899Z,17.23
2017-09-25T22:53:44.941Z,20.43
2017-09-25T22:56:11.401Z,17.97
2017-09-25T22:58:38.067Z,17.23
2017-09-25T23:01:04.924Z,16.73
2017-09-25T23:15:51.408Z,15.70
2017-09-25T23:18:18.098Z,15.27
2017-09-25T23:20:44.747Z,15.50
2017-09-25T23:23:11.452Z,14.40
2017-09-25T23:25:38.124Z,16.00
2017-09-25T23:28:05.657Z,16.47
2017-09-25T23:30:36.161Z,13.73
2017-09-25T23:33:06.192Z,14.23
2017-09-25T23:35:32.894Z,14.00
2017-09-25T23:37:59.675Z,16.33
2017-09-25T23:40:26.862Z,12.73
2017-09-25T23:42:53.483Z,13.53
2017-09-25T23:45:21.218Z,16.50
2017-09-25T23:47:47.753Z,17.37
2017-09-25T23:50:14.243Z,14.80
2017-09-25T23:52:43.015Z,16.47
2017-09-25T23:55:10.538Z,15.13
2017-09-25T23:57:37.205Z,15.23
